createdAt,value
2022-11-26T00:00:40.262Z,1017.97
2022-11-26T00:01:55.896Z,1017.96
2022-11-26T00:02:40.571Z,1017.94
2022-11-26T00:03:51.047Z,1017.96
2022-11-26T00:05:52.763Z,1018.02
2022-11-26T00:07:47.739Z,1018.09
2022-11-26T00:08:47.370Z,1018.11
2022-11-26T00:09:47.345Z,1018.11
2022-11-26T00:10:47.185Z,1018.14
2022-11-26T00:11:47.371Z,1018.12
2022-11-26T00:12:56.804Z,1018.10
2022-11-26T00:13:47.336Z,1018.11
2022-11-26T00:16:00.045Z,1018.10
2022-11-26T00:18:15.771Z,1018.09
2022-11-26T00:19:15.666Z,1018.09
2022-11-26T00:21:29.674Z,1018.08
2022-11-26T00:23:41.504Z,1018.05
2022-11-26T00:24:51.431Z,1018.09
2022-11-26T00:26:56.660Z,1018.02
2022-11-26T00:27:56.586Z,1018.09
2022-11-26T00:28:56.646Z,1018.17
2022-11-26T00:29:56.562Z,1018.10
2022-11-26T00:30:56.508Z,1018.22
2022-11-26T00:31:56.530Z,1018.19
2022-11-26T00:33:06.311Z,1018.19
2022-11-26T00:34:06.156Z,1018.16
2022-11-26T00:34:56.591Z,1018.23
2022-11-26T00:37:07.995Z,1018.22
2022-11-26T00:38:15.110Z,1018.21
2022-11-26T00:39:20.925Z,1018.23
2022-11-26T00:41:19.413Z,1018.25
2022-11-26T00:43:31.719Z,1018.28
2022-11-26T00:45:56.079Z,1018.39
2022-11-26T00:47:08.267Z,1018.41
2022-11-26T00:48:03.907Z,1018.41
2022-11-26T00:49:06.790Z,1018.40
2022-11-26T00:50:05.647Z,1018.41
2022-11-26T00:52:09.318Z,1018.47
2022-11-26T00:53:09.283Z,1018.43
2022-11-26T00:54:18.237Z,1018.39
2022-11-26T00:55:19.832Z,1018.53
2022-11-26T00:56:18.548Z,1018.43
2022-11-26T00:58:21.745Z,1018.41
2022-11-26T00:59:32.333Z,1018.46
2022-11-26T01:01:33.805Z,1018.56
2022-11-26T01:02:42.381Z,1018.52
2022-11-26T01:03:42.147Z,1018.57
2022-11-26T01:05:45.467Z,1018.61
2022-11-26T01:07:56.046Z,1018.63
2022-11-26T01:08:55.894Z,1018.64
2022-11-26T01:10:04.904Z,1018.67
2022-11-26T01:10:55.882Z,1018.72
2022-11-26T01:11:55.891Z,1018.70
2022-11-26T01:13:05.896Z,1018.69
2022-11-26T01:13:55.814Z,1018.70
2022-11-26T01:16:09.604Z,1018.68
2022-11-26T01:17:22.272Z,1018.67
2022-11-26T01:19:20.838Z,1018.73
2022-11-26T01:20:31.980Z,1018.71
2022-11-26T01:21:34.316Z,1018.75
2022-11-26T01:23:34.572Z,1018.73
2022-11-26T01:24:44.514Z,1018.73
2022-11-26T01:25:43.918Z,1018.74
2022-11-26T01:26:44.400Z,1018.73
2022-11-26T01:27:46.242Z,1018.73
2022-11-26T01:29:47.603Z,1018.76
2022-11-26T01:31:59.984Z,1018.76
2022-11-26T01:32:59.863Z,1018.79
2022-11-26T01:35:11.717Z,1018.85
2022-11-26T01:37:36.080Z,1018.84
2022-11-26T01:39:49.506Z,1018.86
2022-11-26T01:40:49.343Z,1018.86
2022-11-26T01:41:56.893Z,1018.89
2022-11-26T01:42:58.932Z,1018.84
2022-11-26T01:45:05.698Z,1018.89
2022-11-26T01:46:17.650Z,1018.87
2022-11-26T01:47:14.318Z,1018.83
2022-11-26T01:48:14.849Z,1018.84
2022-11-26T01:49:16.608Z,1018.93
2022-11-26T01:50:17.466Z,1018.87
2022-11-26T01:52:17.458Z,1018.93
2022-11-26T01:54:28.958Z,1018.91
2022-11-26T01:56:40.453Z,1018.89
2022-11-26T01:58:51.809Z,1018.92
2022-11-26T02:01:03.289Z,1019.07
2022-11-26T02:02:13.080Z,1019.06
2022-11-26T02:03:14.289Z,1019.07
2022-11-26T02:04:11.754Z,1019.05
2022-11-26T02:05:12.348Z,1019.09
2022-11-26T02:06:13.145Z,1019.07
2022-11-26T02:08:15.545Z,1019.13
2022-11-26T02:09:24.209Z,1019.09
2022-11-26T02:10:15.490Z,1019.14
2022-11-26T02:12:30.481Z,1019.12
2022-11-26T02:13:40.445Z,1019.17
2022-11-26T02:15:42.886Z,1019.21
2022-11-26T02:16:52.515Z,1019.26
2022-11-26T02:17:50.949Z,1019.23
2022-11-26T02:18:51.640Z,1019.30
2022-11-26T02:20:54.593Z,1019.29
2022-11-26T02:22:04.145Z,1019.31
2022-11-26T02:24:05.662Z,1019.26
2022-11-26T02:26:17.682Z,1019.31
2022-11-26T02:28:30.403Z,1019.32
2022-11-26T02:29:40.911Z,1019.35
2022-11-26T02:31:44.126Z,1019.35
2022-11-26T02:32:55.375Z,1019.35
2022-11-26T02:34:55.802Z,1019.36
2022-11-26T02:37:06.893Z,1019.39
2022-11-26T02:38:14.369Z,1019.35
2022-11-26T02:39:18.268Z,1019.33
2022-11-26T02:41:18.589Z,1019.44
2022-11-26T02:43:29.254Z,1019.46
2022-11-26T02:45:40.699Z,1019.47
2022-11-26T02:46:51.711Z,1019.45
2022-11-26T02:47:51.246Z,1019.41
2022-11-26T02:51:08.958Z,1019.41
2022-11-26T02:53:13.644Z,1019.39
2022-11-26T02:55:27.027Z,1019.40
2022-11-26T02:57:39.362Z,1019.43
2022-11-26T02:59:53.261Z,1019.49
2022-11-26T03:01:02.872Z,1019.53
2022-11-26T03:04:16.130Z,1019.52
2022-11-26T03:05:26.575Z,1019.57
2022-11-26T03:07:26.297Z,1019.54
2022-11-26T03:08:36.066Z,1019.58
2022-11-26T03:09:26.192Z,1019.59
2022-11-26T03:10:26.154Z,1019.60
2022-11-26T03:11:34.931Z,1019.59
2022-11-26T03:12:34.959Z,1019.58
2022-11-26T03:13:26.191Z,1019.54
2022-11-26T03:15:38.736Z,1019.62
2022-11-26T03:17:50.045Z,1019.53
2022-11-26T03:20:02.468Z,1019.63
2022-11-26T03:22:21.229Z,1019.69
2022-11-26T03:24:31.806Z,1019.72
2022-11-26T03:26:44.321Z,1019.74
2022-11-26T03:27:44.085Z,1019.77
2022-11-26T03:28:44.099Z,1019.80
2022-11-26T03:29:44.119Z,1019.79
2022-11-26T03:30:44.038Z,1019.72
2022-11-26T03:31:44.129Z,1019.76
2022-11-26T03:32:44.077Z,1019.83
2022-11-26T03:33:43.995Z,1019.79
2022-11-26T03:34:44.014Z,1019.79
2022-11-26T03:35:44.009Z,1019.84
2022-11-26T03:36:43.997Z,1019.82
2022-11-26T03:37:43.963Z,1019.81
2022-11-26T03:38:43.950Z,1019.82
2022-11-26T03:39:44.000Z,1019.84
2022-11-26T03:40:44.012Z,1019.90
2022-11-26T03:41:43.979Z,1019.87
2022-11-26T03:42:43.945Z,1019.86
2022-11-26T03:43:43.954Z,1019.81
2022-11-26T03:44:43.922Z,1019.95
2022-11-26T03:45:43.978Z,1019.88
2022-11-26T03:46:43.862Z,1019.93
2022-11-26T03:47:55.413Z,1019.95
2022-11-26T03:48:43.942Z,1019.93
2022-11-26T03:49:43.937Z,1019.94
2022-11-26T03:50:43.887Z,1019.95
2022-11-26T03:51:52.038Z,1019.94
2022-11-26T03:52:43.848Z,1020.02
2022-11-26T03:53:43.788Z,1020.01
2022-11-26T03:54:43.775Z,1020.01
2022-11-26T03:55:43.799Z,1020.07
2022-11-26T03:56:43.772Z,1020.10
2022-11-26T03:57:43.740Z,1020.12
2022-11-26T03:58:55.713Z,1020.10
2022-11-26T03:59:43.824Z,1020.17
2022-11-26T04:01:55.269Z,1020.07
2022-11-26T04:03:03.276Z,1020.14
2022-11-26T04:04:02.789Z,1020.12
2022-11-26T04:06:07.891Z,1020.15
2022-11-26T04:07:17.348Z,1020.15
2022-11-26T04:08:17.346Z,1020.15
2022-11-26T04:09:07.857Z,1020.19
2022-11-26T04:10:07.780Z,1020.21
2022-11-26T04:11:18.659Z,1020.25
2022-11-26T04:12:15.369Z,1020.27
2022-11-26T04:13:15.441Z,1020.25
2022-11-26T04:15:18.638Z,1020.23
2022-11-26T04:16:27.450Z,1020.34
2022-11-26T04:17:18.498Z,1020.27
2022-11-26T04:18:18.445Z,1020.32
2022-11-26T04:19:18.436Z,1020.29
2022-11-26T04:20:18.445Z,1020.37
2022-11-26T04:21:18.393Z,1020.36
2022-11-26T04:22:18.424Z,1020.41
2022-11-26T04:23:18.394Z,1020.34
2022-11-26T04:24:18.367Z,1020.38
2022-11-26T04:25:18.347Z,1020.40
2022-11-26T04:26:18.333Z,1020.34
2022-11-26T04:27:18.382Z,1020.38
2022-11-26T04:28:29.282Z,1020.38
2022-11-26T04:29:18.419Z,1020.43
2022-11-26T04:30:18.341Z,1020.45
2022-11-26T04:31:18.349Z,1020.43
2022-11-26T04:32:18.345Z,1020.48
2022-11-26T04:33:18.279Z,1020.48
2022-11-26T04:34:18.273Z,1020.53
2022-11-26T04:35:26.481Z,1020.53
2022-11-26T04:36:18.291Z,1020.54
2022-11-26T04:37:18.263Z,1020.60
2022-11-26T04:38:22.820Z,1020.65
2022-11-26T04:39:19.238Z,1020.63
2022-11-26T04:40:18.239Z,1020.65
2022-11-26T04:41:18.202Z,1020.68
2022-11-26T04:42:18.185Z,1020.66
2022-11-26T04:43:18.160Z,1020.71
2022-11-26T04:44:18.190Z,1020.73
2022-11-26T04:45:18.183Z,1020.77
2022-11-26T04:46:18.271Z,1020.78
2022-11-26T04:47:18.154Z,1020.71
2022-11-26T04:48:18.147Z,1020.78
2022-11-26T04:49:18.176Z,1020.78
2022-11-26T04:50:18.102Z,1020.68
2022-11-26T04:51:18.102Z,1020.80
2022-11-26T04:52:18.099Z,1020.82
2022-11-26T04:53:18.081Z,1020.82
2022-11-26T04:54:18.047Z,1020.84
2022-11-26T04:55:18.077Z,1020.86
2022-11-26T04:56:18.035Z,1020.87
2022-11-26T04:57:18.016Z,1020.92
2022-11-26T04:58:18.016Z,1020.90
2022-11-26T04:59:17.989Z,1020.92
2022-11-26T05:00:18.016Z,1020.95
2022-11-26T05:01:18.002Z,1020.91
2022-11-26T05:02:18.007Z,1020.90
2022-11-26T05:03:17.995Z,1020.97
2022-11-26T05:04:17.933Z,1020.98
2022-11-26T05:05:17.948Z,1020.99
2022-11-26T05:06:17.944Z,1020.99
2022-11-26T05:07:18.041Z,1021.00
2022-11-26T05:08:17.907Z,1021.02
2022-11-26T05:09:17.891Z,1021.01
2022-11-26T05:10:17.905Z,1021.02
2022-11-26T05:11:17.902Z,1021.07
2022-11-26T05:12:17.893Z,1021.05
2022-11-26T05:13:26.774Z,1021.17
2022-11-26T05:14:17.849Z,1021.07
2022-11-26T05:15:17.809Z,1021.13
2022-11-26T05:16:25.521Z,1021.09
2022-11-26T05:17:29.886Z,1021.15
2022-11-26T05:18:17.893Z,1021.19
2022-11-26T05:19:17.788Z,1021.17
2022-11-26T05:20:17.854Z,1021.20
2022-11-26T05:21:17.759Z,1021.23
2022-11-26T05:22:17.745Z,1021.22
2022-11-26T05:23:17.776Z,1021.20
2022-11-26T05:24:17.740Z,1021.28
2022-11-26T05:25:17.723Z,1021.28
2022-11-26T05:26:17.703Z,1021.30
2022-11-26T05:27:17.707Z,1021.30
2022-11-26T05:28:17.700Z,1021.34
2022-11-26T05:29:17.715Z,1021.32
2022-11-26T05:30:17.669Z,1021.33
2022-11-26T05:31:17.694Z,1021.37
2022-11-26T05:32:17.657Z,1021.38
2022-11-26T05:33:17.625Z,1021.39
2022-11-26T05:34:17.615Z,1021.37
2022-11-26T05:35:17.606Z,1021.39
2022-11-26T05:36:17.615Z,1021.42
2022-11-26T05:37:17.582Z,1021.46
2022-11-26T05:38:17.565Z,1021.42
2022-11-26T05:39:17.548Z,1021.39
2022-11-26T05:40:17.585Z,1021.44
2022-11-26T05:41:17.563Z,1021.45
2022-11-26T05:42:17.557Z,1021.45
2022-11-26T05:43:17.531Z,1021.47
2022-11-26T05:44:17.517Z,1021.50
2022-11-26T05:45:17.525Z,1021.46
2022-11-26T05:46:17.554Z,1021.39
2022-11-26T05:47:17.486Z,1021.38
2022-11-26T05:48:17.472Z,1021.48
2022-11-26T05:49:17.442Z,1021.44
2022-11-26T05:50:17.455Z,1021.40
2022-11-26T05:51:17.434Z,1021.42
2022-11-26T05:52:17.416Z,1021.47
2022-11-26T05:53:17.474Z,1021.45
2022-11-26T05:54:17.419Z,1021.51
2022-11-26T05:55:17.378Z,1021.43
2022-11-26T05:56:17.412Z,1021.54
2022-11-26T05:57:17.371Z,1021.56
2022-11-26T05:58:17.375Z,1021.57
2022-11-26T05:59:17.391Z,1021.55
2022-11-26T06:00:17.328Z,1021.59
2022-11-26T06:01:17.336Z,1021.55
2022-11-26T06:02:17.469Z,1021.58
2022-11-26T06:03:20.409Z,1021.60
2022-11-26T06:04:17.310Z,1021.59
2022-11-26T06:05:17.331Z,1021.63
2022-11-26T06:06:17.290Z,1021.63
2022-11-26T06:07:17.308Z,1021.64
2022-11-26T06:08:17.244Z,1021.65
2022-11-26T06:09:17.252Z,1021.61
2022-11-26T06:10:17.247Z,1021.67
2022-11-26T06:11:17.207Z,1021.70
2022-11-26T06:12:17.196Z,1021.80
2022-11-26T06:13:17.193Z,1021.79
2022-11-26T06:14:17.179Z,1021.77
2022-11-26T06:15:17.187Z,1021.74
2022-11-26T06:16:17.247Z,1021.78
2022-11-26T06:17:17.153Z,1021.79
2022-11-26T06:18:17.136Z,1021.78
2022-11-26T06:19:17.123Z,1021.78
2022-11-26T06:20:17.130Z,1021.78
2022-11-26T06:21:17.129Z,1021.87
2022-11-26T06:22:17.092Z,1021.81
2022-11-26T06:23:17.091Z,1021.89
2022-11-26T06:24:17.087Z,1021.88
2022-11-26T06:25:17.083Z,1021.96
2022-11-26T06:26:17.069Z,1021.90
2022-11-26T06:27:17.049Z,1021.93
2022-11-26T06:28:17.076Z,1021.97
2022-11-26T06:29:17.018Z,1021.97
2022-11-26T06:30:17.009Z,1022.06
2022-11-26T06:31:17.082Z,1022.01
2022-11-26T06:32:16.990Z,1022.03
2022-11-26T06:33:16.981Z,1022.04
2022-11-26T06:34:16.976Z,1022.09
2022-11-26T06:35:16.968Z,1022.10
2022-11-26T06:36:17.059Z,1022.12
2022-11-26T06:37:16.937Z,1022.15
2022-11-26T06:38:16.930Z,1022.20
2022-11-26T06:39:16.939Z,1022.21
2022-11-26T06:40:16.912Z,1022.17
2022-11-26T06:41:16.899Z,1022.17
2022-11-26T06:42:16.903Z,1022.22
2022-11-26T06:43:16.901Z,1022.22
2022-11-26T06:44:16.858Z,1022.27
2022-11-26T06:45:16.871Z,1022.30
2022-11-26T06:46:16.898Z,1022.32
2022-11-26T06:47:16.844Z,1022.33
2022-11-26T06:48:16.880Z,1022.30
2022-11-26T06:49:16.810Z,1022.31
2022-11-26T06:50:16.802Z,1022.35
2022-11-26T06:51:16.789Z,1022.41
2022-11-26T06:52:16.791Z,1022.35
2022-11-26T06:53:16.805Z,1022.39
2022-11-26T06:54:16.759Z,1022.50
2022-11-26T06:55:16.738Z,1022.40
2022-11-26T06:56:19.031Z,1022.47
2022-11-26T06:57:16.717Z,1022.50
2022-11-26T06:58:16.700Z,1022.49
2022-11-26T06:59:16.734Z,1022.53
2022-11-26T07:00:16.692Z,1022.52
2022-11-26T07:01:16.723Z,1022.51
2022-11-26T07:02:16.796Z,1022.52
2022-11-26T07:03:21.006Z,1022.57
2022-11-26T07:04:17.653Z,1022.55
2022-11-26T07:05:16.677Z,1022.48
2022-11-26T07:06:16.621Z,1022.57
2022-11-26T07:07:16.716Z,1022.52
2022-11-26T07:08:16.602Z,1022.56
2022-11-26T07:09:16.604Z,1022.59
2022-11-26T07:10:16.575Z,1022.51
2022-11-26T07:11:16.621Z,1022.55
2022-11-26T07:12:16.558Z,1022.59
2022-11-26T07:13:16.553Z,1022.67
2022-11-26T07:14:16.536Z,1022.67
2022-11-26T07:15:16.563Z,1022.71
2022-11-26T07:16:16.568Z,1022.68
2022-11-26T07:17:16.511Z,1022.67
2022-11-26T07:18:16.495Z,1022.68
2022-11-26T07:19:16.505Z,1022.70
2022-11-26T07:20:16.468Z,1022.74
2022-11-26T07:21:16.465Z,1022.67
2022-11-26T07:22:16.451Z,1022.71
2022-11-26T07:23:16.441Z,1022.69
2022-11-26T07:24:24.043Z,1022.72
2022-11-26T07:25:16.504Z,1022.78
2022-11-26T07:26:16.430Z,1022.75
2022-11-26T07:27:16.419Z,1022.79
2022-11-26T07:28:16.382Z,1022.74
2022-11-26T07:29:16.370Z,1022.79
2022-11-26T07:30:16.364Z,1022.74
2022-11-26T07:31:17.220Z,1022.76
2022-11-26T07:32:16.348Z,1022.77
2022-11-26T07:33:16.338Z,1022.77
2022-11-26T07:34:16.321Z,1022.78
2022-11-26T07:35:16.324Z,1022.84
2022-11-26T07:36:16.368Z,1022.79
2022-11-26T07:37:16.338Z,1022.80
2022-11-26T07:37:56.349Z,1022.88
2022-11-26T07:38:56.324Z,1022.80
2022-11-26T07:39:56.256Z,1022.77
2022-11-26T07:40:56.274Z,1022.94
2022-11-26T07:41:56.274Z,1022.89
2022-11-26T07:42:56.234Z,1022.92
2022-11-26T07:43:56.232Z,1022.93
2022-11-26T07:44:56.218Z,1022.90
2022-11-26T07:45:56.304Z,1022.91
2022-11-26T07:46:56.205Z,1022.94
2022-11-26T07:47:56.224Z,1022.97
2022-11-26T07:48:56.183Z,1022.97
2022-11-26T07:49:56.162Z,1022.98
2022-11-26T07:50:56.170Z,1022.96
2022-11-26T07:51:56.139Z,1022.97
2022-11-26T07:52:56.143Z,1022.96
2022-11-26T07:53:56.139Z,1023.02
2022-11-26T07:54:56.106Z,1023.02
2022-11-26T07:55:56.109Z,1023.02
2022-11-26T07:57:04.692Z,1023.06
2022-11-26T07:57:56.114Z,1023.10
2022-11-26T07:59:04.696Z,1023.01
2022-11-26T08:00:03.942Z,1023.03
2022-11-26T08:01:04.733Z,1023.06
2022-11-26T08:01:56.168Z,1023.04
2022-11-26T08:02:56.087Z,1023.07
2022-11-26T08:03:56.011Z,1023.05
2022-11-26T08:04:56.011Z,1023.04
2022-11-26T08:05:55.995Z,1023.07
2022-11-26T08:06:55.999Z,1023.09
2022-11-26T08:07:56.043Z,1023.12
2022-11-26T08:08:55.987Z,1023.13
2022-11-26T08:09:55.950Z,1023.13
2022-11-26T08:10:55.941Z,1023.15
2022-11-26T08:11:55.981Z,1023.15
2022-11-26T08:12:55.923Z,1023.19
2022-11-26T08:13:55.899Z,1023.19
2022-11-26T08:14:55.900Z,1023.21
2022-11-26T08:15:55.928Z,1023.14
2022-11-26T08:16:55.964Z,1023.20
2022-11-26T08:17:55.880Z,1023.12
2022-11-26T08:18:55.851Z,1023.21
2022-11-26T08:19:55.839Z,1023.17
2022-11-26T08:20:55.843Z,1023.24
2022-11-26T08:21:55.820Z,1023.26
2022-11-26T08:22:55.851Z,1023.23
2022-11-26T08:23:55.793Z,1023.30
2022-11-26T08:24:55.788Z,1023.24
2022-11-26T08:26:56.759Z,1023.35
2022-11-26T08:27:55.748Z,1023.32
2022-11-26T08:28:55.790Z,1023.31
2022-11-26T08:29:55.734Z,1023.34
2022-11-26T08:30:55.726Z,1023.34
2022-11-26T08:31:55.796Z,1023.33
2022-11-26T08:32:55.697Z,1023.34
2022-11-26T08:33:55.685Z,1023.37
2022-11-26T08:34:55.711Z,1023.38
2022-11-26T08:36:06.736Z,1023.40
2022-11-26T08:36:56.655Z,1023.38
2022-11-26T08:37:55.642Z,1023.39
2022-11-26T08:38:55.680Z,1023.42
2022-11-26T08:39:55.630Z,1023.38
2022-11-26T08:40:55.621Z,1023.40
2022-11-26T08:41:55.658Z,1023.45
2022-11-26T08:42:55.616Z,1023.44
2022-11-26T08:44:10.905Z,1023.44
2022-11-26T08:44:56.580Z,1023.52
2022-11-26T08:45:55.593Z,1023.46
2022-11-26T08:46:55.564Z,1023.55
2022-11-26T08:47:55.579Z,1023.55
2022-11-26T08:48:55.532Z,1023.51
2022-11-26T08:49:55.531Z,1023.50
2022-11-26T08:50:55.517Z,1023.56
2022-11-26T08:51:55.520Z,1023.57
2022-11-26T08:52:55.499Z,1023.58
2022-11-26T08:53:55.485Z,1023.62
2022-11-26T08:54:55.491Z,1023.61
2022-11-26T08:56:00.487Z,1023.64
2022-11-26T08:56:56.493Z,1023.63
2022-11-26T08:57:55.458Z,1023.73
2022-11-26T08:58:55.448Z,1023.70
2022-11-26T08:59:55.427Z,1023.77
2022-11-26T09:00:55.513Z,1023.72
2022-11-26T09:01:55.475Z,1023.71
2022-11-26T09:02:55.415Z,1023.74
2022-11-26T09:03:55.380Z,1023.73
2022-11-26T09:04:55.369Z,1023.75
2022-11-26T09:05:55.362Z,1023.74
2022-11-26T09:06:55.360Z,1023.74
2022-11-26T09:07:55.393Z,1023.76
2022-11-26T09:08:55.328Z,1023.75
2022-11-26T09:09:55.370Z,1023.75
2022-11-26T09:10:55.426Z,1023.82
2022-11-26T09:11:55.285Z,1023.75
2022-11-26T09:12:55.284Z,1023.86
2022-11-26T09:13:55.294Z,1023.87
2022-11-26T09:14:55.336Z,1023.86
2022-11-26T09:15:55.263Z,1023.85
2022-11-26T09:16:55.298Z,1023.86
2022-11-26T09:17:55.292Z,1023.85
2022-11-26T09:18:55.250Z,1023.84
2022-11-26T09:19:55.243Z,1023.89
2022-11-26T09:20:57.291Z,1023.90
2022-11-26T09:21:55.190Z,1023.93
2022-11-26T09:22:55.172Z,1023.88
2022-11-26T09:23:55.178Z,1023.99
2022-11-26T09:24:55.179Z,1023.91
2022-11-26T09:25:55.150Z,1023.94
2022-11-26T09:26:55.177Z,1023.96
2022-11-26T09:27:55.131Z,1023.95
2022-11-26T09:28:55.141Z,1023.97
2022-11-26T09:29:55.118Z,1023.97
2022-11-26T09:30:55.129Z,1024.11
2022-11-26T09:32:22.758Z,1024.02
2022-11-26T09:32:56.095Z,1024.06
2022-11-26T09:33:55.088Z,1024.04
2022-11-26T09:34:55.052Z,1024.05
2022-11-26T09:35:55.046Z,1024.06
2022-11-26T09:36:55.034Z,1024.04
2022-11-26T09:37:55.018Z,1024.05
2022-11-26T09:38:55.032Z,1024.10
2022-11-26T09:39:55.032Z,1024.15
2022-11-26T09:40:54.990Z,1024.12
2022-11-26T09:41:54.985Z,1024.12
2022-11-26T09:42:54.981Z,1024.10
2022-11-26T09:43:54.959Z,1024.15
2022-11-26T09:44:54.974Z,1024.16
2022-11-26T09:45:54.943Z,1024.17
2022-11-26T09:47:11.570Z,1024.18
2022-11-26T09:47:55.922Z,1024.18
2022-11-26T09:48:54.907Z,1024.18
2022-11-26T09:49:54.922Z,1024.17
2022-11-26T09:50:54.881Z,1024.18
2022-11-26T09:51:54.867Z,1024.21
2022-11-26T09:52:54.852Z,1024.25
2022-11-26T09:53:54.852Z,1024.26
2022-11-26T09:54:54.833Z,1024.28
2022-11-26T09:55:54.854Z,1024.22
2022-11-26T09:56:54.819Z,1024.23
2022-11-26T09:57:54.810Z,1024.31
2022-11-26T09:58:54.816Z,1024.30
2022-11-26T09:59:54.782Z,1024.29
2022-11-26T10:00:54.880Z,1024.30
2022-11-26T10:01:54.814Z,1024.29
2022-11-26T10:02:54.789Z,1024.28
2022-11-26T10:03:54.740Z,1024.29
2022-11-26T10:04:54.728Z,1024.23
2022-11-26T10:05:54.733Z,1024.29
2022-11-26T10:06:54.723Z,1024.31
2022-11-26T10:07:54.831Z,1024.34
2022-11-26T10:08:54.696Z,1024.31
2022-11-26T10:09:54.715Z,1024.31
2022-11-26T10:10:54.699Z,1024.29
2022-11-26T10:11:54.674Z,1024.26
2022-11-26T10:13:17.302Z,1024.27
2022-11-26T10:13:55.642Z,1024.29
2022-11-26T10:14:54.658Z,1024.37
2022-11-26T10:15:54.627Z,1024.27
2022-11-26T10:16:54.752Z,1024.33
2022-11-26T10:17:54.589Z,1024.27
2022-11-26T10:18:54.603Z,1024.39
2022-11-26T10:19:54.633Z,1024.30
2022-11-26T10:20:54.564Z,1024.31
2022-11-26T10:21:59.393Z,1024.35
2022-11-26T10:22:57.368Z,1024.42
2022-11-26T10:23:54.561Z,1024.37
2022-11-26T10:24:54.533Z,1024.37
2022-11-26T10:25:54.537Z,1024.39
2022-11-26T10:26:54.508Z,1024.39
2022-11-26T10:27:54.493Z,1024.34
2022-11-26T10:28:54.499Z,1024.28
2022-11-26T10:29:54.517Z,1024.42
2022-11-26T10:30:54.484Z,1024.42
2022-11-26T10:31:54.583Z,1024.36
2022-11-26T10:32:54.460Z,1024.33
2022-11-26T10:33:54.431Z,1024.38
2022-11-26T10:34:54.450Z,1024.44
2022-11-26T10:35:54.415Z,1024.41
2022-11-26T10:36:54.433Z,1024.37
2022-11-26T10:37:54.423Z,1024.38
2022-11-26T10:38:54.382Z,1024.42
2022-11-26T10:39:59.961Z,1024.40
2022-11-26T10:40:55.388Z,1024.44
2022-11-26T10:41:54.346Z,1024.42
2022-11-26T10:42:54.349Z,1024.44
2022-11-26T10:43:54.357Z,1024.44
2022-11-26T10:44:54.340Z,1024.52
2022-11-26T10:45:54.432Z,1024.51
2022-11-26T10:46:54.355Z,1024.53
2022-11-26T10:47:54.287Z,1024.51
2022-11-26T10:48:54.283Z,1024.51
2022-11-26T10:49:54.296Z,1024.53
2022-11-26T10:50:54.261Z,1024.54
2022-11-26T10:51:54.247Z,1024.59
2022-11-26T10:52:54.257Z,1024.55
2022-11-26T10:53:54.215Z,1024.54
2022-11-26T10:54:54.231Z,1024.55
2022-11-26T10:55:54.204Z,1024.61
2022-11-26T10:56:54.204Z,1024.58
2022-11-26T10:57:54.186Z,1024.55
2022-11-26T10:58:54.187Z,1024.55
2022-11-26T10:59:54.170Z,1024.57
2022-11-26T11:00:54.204Z,1024.55
2022-11-26T11:01:57.453Z,1024.56
2022-11-26T11:02:54.134Z,1024.57
2022-11-26T11:04:09.546Z,1024.56
2022-11-26T11:04:55.105Z,1024.50
2022-11-26T11:05:54.108Z,1024.49
2022-11-26T11:06:54.083Z,1024.53
2022-11-26T11:07:54.206Z,1024.50
2022-11-26T11:08:54.103Z,1024.50
2022-11-26T11:09:54.060Z,1024.54
2022-11-26T11:10:54.041Z,1024.59
2022-11-26T11:11:54.031Z,1024.59
2022-11-26T11:12:54.047Z,1024.58
2022-11-26T11:13:54.012Z,1024.59
2022-11-26T11:14:54.006Z,1024.60
2022-11-26T11:15:54.071Z,1024.59
2022-11-26T11:16:54.044Z,1024.55
2022-11-26T11:17:54.022Z,1024.62
2022-11-26T11:18:53.981Z,1024.59
2022-11-26T11:19:53.969Z,1024.66
2022-11-26T11:20:53.937Z,1024.61
2022-11-26T11:21:53.931Z,1024.65
2022-11-26T11:22:56.378Z,1024.70
2022-11-26T11:24:08.198Z,1024.75
2022-11-26T11:24:54.920Z,1024.64
2022-11-26T11:25:53.889Z,1024.75
2022-11-26T11:26:53.865Z,1024.68
2022-11-26T11:27:53.864Z,1024.72
2022-11-26T11:28:53.883Z,1024.67
2022-11-26T11:29:53.850Z,1024.69
2022-11-26T11:30:53.833Z,1024.77
2022-11-26T11:31:53.865Z,1024.75
2022-11-26T11:32:53.808Z,1024.77
2022-11-26T11:33:53.796Z,1024.77
2022-11-26T11:34:53.834Z,1024.77
2022-11-26T11:35:53.795Z,1024.76
2022-11-26T11:36:53.770Z,1024.77
2022-11-26T11:37:53.754Z,1024.71
2022-11-26T11:38:53.756Z,1024.69
2022-11-26T11:39:53.738Z,1024.81
2022-11-26T11:40:53.735Z,1024.72
2022-11-26T11:41:53.721Z,1024.77
2022-11-26T11:42:53.710Z,1024.77
2022-11-26T11:43:53.696Z,1024.78
2022-11-26T11:44:53.677Z,1024.81
2022-11-26T11:45:53.766Z,1024.87
2022-11-26T11:46:53.664Z,1024.80
2022-11-26T11:47:53.658Z,1024.84
2022-11-26T11:48:53.648Z,1024.78
2022-11-26T11:49:53.634Z,1024.81
2022-11-26T11:50:53.682Z,1024.79
2022-11-26T11:51:53.611Z,1024.84
2022-11-26T11:52:53.597Z,1024.78
2022-11-26T11:53:53.589Z,1024.84
2022-11-26T11:54:53.568Z,1024.87
2022-11-26T11:55:58.095Z,1024.89
2022-11-26T11:56:54.570Z,1024.91
2022-11-26T11:57:53.545Z,1024.87
2022-11-26T11:58:53.548Z,1024.89
2022-11-26T11:59:53.544Z,1024.87
2022-11-26T12:00:53.517Z,1024.87
2022-11-26T12:01:53.537Z,1024.84
2022-11-26T12:02:53.509Z,1024.84
2022-11-26T12:03:53.537Z,1024.86
2022-11-26T12:04:53.538Z,1024.85
2022-11-26T12:05:53.537Z,1024.83
2022-11-26T12:06:53.469Z,1024.85
2022-11-26T12:07:53.566Z,1024.80
2022-11-26T12:08:53.433Z,1024.84
2022-11-26T12:09:53.427Z,1024.86
2022-11-26T12:10:53.410Z,1024.89
2022-11-26T12:11:53.402Z,1024.89
2022-11-26T12:12:53.407Z,1024.82
2022-11-26T12:13:53.380Z,1024.81
2022-11-26T12:14:53.368Z,1024.87
2022-11-26T12:15:53.358Z,1024.96
2022-11-26T12:16:53.413Z,1024.84
2022-11-26T12:17:53.335Z,1024.96
2022-11-26T12:18:53.352Z,1024.88
2022-11-26T12:19:53.324Z,1024.88
2022-11-26T12:20:53.306Z,1024.88
2022-11-26T12:21:53.305Z,1024.90
2022-11-26T12:22:53.300Z,1024.89
2022-11-26T12:23:53.276Z,1024.88
2022-11-26T12:24:53.322Z,1024.85
2022-11-26T12:25:53.255Z,1024.89
2022-11-26T12:26:53.234Z,1024.88
2022-11-26T12:27:53.258Z,1024.83
2022-11-26T12:28:53.221Z,1024.81
2022-11-26T12:29:53.214Z,1024.82
2022-11-26T12:30:53.214Z,1024.79
2022-11-26T12:31:53.254Z,1024.80
2022-11-26T12:32:53.173Z,1024.81
2022-11-26T12:33:53.184Z,1024.75
2022-11-26T12:34:53.160Z,1024.80
2022-11-26T12:35:53.162Z,1024.78
2022-11-26T12:36:53.140Z,1024.89
2022-11-26T12:37:53.121Z,1024.80
2022-11-26T12:38:53.146Z,1024.83
2022-11-26T12:39:54.117Z,1024.80
2022-11-26T12:40:53.093Z,1024.80
2022-11-26T12:41:53.074Z,1024.88
2022-11-26T12:42:53.095Z,1024.83
2022-11-26T12:43:53.097Z,1024.84
2022-11-26T12:44:53.055Z,1024.84
2022-11-26T12:45:53.090Z,1024.82
2022-11-26T12:46:53.064Z,1024.80
2022-11-26T12:47:53.020Z,1024.84
2022-11-26T12:48:53.003Z,1024.89
2022-11-26T12:49:53.003Z,1024.88
2022-11-26T12:50:52.988Z,1024.87
2022-11-26T12:51:52.989Z,1024.88
2022-11-26T12:52:52.966Z,1024.85
2022-11-26T12:53:52.965Z,1024.87
2022-11-26T12:54:52.972Z,1024.90
2022-11-26T12:55:52.945Z,1024.93
2022-11-26T12:56:52.931Z,1024.89
2022-11-26T12:57:52.913Z,1024.93
2022-11-26T12:58:52.940Z,1024.89
2022-11-26T12:59:52.900Z,1024.87
2022-11-26T13:00:52.965Z,1024.92
2022-11-26T13:01:52.950Z,1024.89
2022-11-26T13:02:52.860Z,1024.87
2022-11-26T13:04:08.464Z,1024.92
2022-11-26T13:04:54.367Z,1024.96
2022-11-26T13:05:52.823Z,1024.87
2022-11-26T13:06:52.818Z,1024.88
2022-11-26T13:07:52.892Z,1024.84
2022-11-26T13:08:52.802Z,1024.93
2022-11-26T13:10:01.765Z,1024.91
2022-11-26T13:10:53.160Z,1024.93
2022-11-26T13:12:01.891Z,1024.92
2022-11-26T13:12:52.916Z,1024.97
2022-11-26T13:14:00.387Z,1024.93
2022-11-26T13:16:04.153Z,1024.87
2022-11-26T13:17:04.125Z,1024.91
2022-11-26T13:18:04.043Z,1024.95
2022-11-26T13:19:06.725Z,1024.95
2022-11-26T13:20:04.005Z,1025.00
2022-11-26T13:21:04.026Z,1024.96